Lettsworth, Louisiana
Current Conditions -  °F | °C
As of 1:35 PM on Friday 28 Nov 2014 (Local Time) from KHZR Reporting Station
Clear Clear  
Wind Chill: 60°   Ceiling: Unl
Heat Index: 60°   Visibility: 10mi
Dew Point: 33°   Wind: 5mph
Humidity: 35%   Direction: 150°SSE
Pressure: 30.31"   Gusts: NA
Location:  30.93°N, 91.71°W
Report Text: KHZR 281935Z AUTO 15004KT 10SM CLR 16/00 A3031 RMK AO2 T01560003
Loading
Personal Weather Stations






























Interactive Weather Map New forecast layout! Learn more

10-Day Weather Forecast

Advertisements
Track Severe Weather on mobile